sensor_id;sensor_type;location;lat;lon;timestamp;P1;durP1;ratioP1;P2;durP2;ratioP2
3280;SDS011;1652;51.31805600;6.20194400;2024-02-28T00:02:26;44.30;;;19.83;;
3280;SDS011;1652;51.31805600;6.20194400;2024-02-28T00:04:54;48.40;;;17.70;;
3280;SDS011;1652;51.31805600;6.20194400;2024-02-28T00:07:21;50.30;;;20.73;;
3280;SDS011;1652;51.31805600;6.20194400;2024-02-28T00:09:48;40.80;;;18.77;;
3280;SDS011;1652;51.31805600;6.20194400;2024-02-28T00:12:15;49.93;;;20.53;;
3280;SDS011;1652;51.31805600;6.20194400;2024-02-28T00:14:42;50.10;;;21.53;;
3280;SDS011;1652;51.31805600;6.20194400;2024-02-28T00:17:09;54.53;;;20.40;;
3280;SDS011;1652;51.31805600;6.20194400;2024-02-28T00:19:38;41.93;;;19.37;;
3280;SDS011;1652;51.31805600;6.20194400;2024-02-28T00:22:05;44.40;;;19.37;;
3280;SDS011;1652;51.31805600;6.20194400;2024-02-28T00:24:32;44.07;;;19.87;;
3280;SDS011;1652;51.31805600;6.20194400;2024-02-28T00:27:01;54.33;;;20.47;;
3280;SDS011;1652;51.31805600;6.20194400;2024-02-28T00:29:28;44.03;;;20.47;;
3280;SDS011;1652;51.31805600;6.20194400;2024-02-28T00:31:55;51.90;;;20.17;;
3280;SDS011;1652;51.31805600;6.20194400;2024-02-28T00:34:22;75.00;;;24.67;;
3280;SDS011;1652;51.31805600;6.20194400;2024-02-28T00:36:49;148.50;;;26.20;;
3280;SDS011;1652;51.31805600;6.20194400;2024-02-28T00:39:21;199.50;;;27.57;;
3280;SDS011;1652;51.31805600;6.20194400;2024-02-28T00:41:48;126.17;;;25.03;;
3280;SDS011;1652;51.31805600;6.20194400;2024-02-28T00:44:15;111.20;;;23.77;;
3280;SDS011;1652;51.31805600;6.20194400;2024-02-28T00:46:42;115.63;;;22.67;;
3280;SDS011;1652;51.31805600;6.20194400;2024-02-28T00:49:09;154.00;;;23.40;;
3280;SDS011;1652;51.31805600;6.20194400;2024-02-28T00:51:36;188.60;;;24.13;;
3280;SDS011;1652;51.31805600;6.20194400;2024-02-28T00:54:03;116.97;;;22.77;;
3280;SDS011;1652;51.31805600;6.20194400;2024-02-28T00:56:30;117.47;;;22.00;;
3280;SDS011;1652;51.31805600;6.20194400;2024-02-28T00:58:58;107.17;;;21.67;;
3280;SDS011;1652;51.31805600;6.20194400;2024-02-28T01:01:25;103.90;;;21.50;;
3280;SDS011;1652;51.31805600;6.20194400;2024-02-28T01:03:52;76.70;;;20.67;;
3280;SDS011;1652;51.31805600;6.20194400;2024-02-28T01:06:19;84.93;;;22.43;;
3280;SDS011;1652;51.31805600;6.20194400;2024-02-28T01:08:46;72.13;;;20.50;;
3280;SDS011;1652;51.31805600;6.20194400;2024-02-28T01:11:13;172.03;;;23.67;;
3280;SDS011;1652;51.31805600;6.20194400;2024-02-28T01:13:40;169.67;;;22.67;;
3280;SDS011;1652;51.31805600;6.20194400;2024-02-28T01:16:07;147.60;;;22.17;;
3280;SDS011;1652;51.31805600;6.20194400;2024-02-28T01:18:34;74.10;;;22.37;;
3280;SDS011;1652;51.31805600;6.20194400;2024-02-28T01:21:01;157.33;;;22.43;;
3280;SDS011;1652;51.31805600;6.20194400;2024-02-28T01:23:27;128.83;;;22.17;;
3280;SDS011;1652;51.31805600;6.20194400;2024-02-28T01:25:54;164.43;;;23.33;;
3280;SDS011;1652;51.31805600;6.20194400;2024-02-28T01:28:21;117.13;;;20.93;;
3280;SDS011;1652;51.31805600;6.20194400;2024-02-28T01:30:48;122.27;;;22.53;;
3280;SDS011;1652;51.31805600;6.20194400;2024-02-28T01:33:15;146.17;;;22.47;;
3280;SDS011;1652;51.31805600;6.20194400;2024-02-28T01:35:42;133.70;;;23.30;;
3280;SDS011;1652;51.31805600;6.20194400;2024-02-28T01:38:09;120.07;;;25.83;;
3280;SDS011;1652;51.31805600;6.20194400;2024-02-28T01:40:36;106.27;;;22.80;;
3280;SDS011;1652;51.31805600;6.20194400;2024-02-28T01:43:09;109.00;;;22.40;;
3280;SDS011;1652;51.31805600;6.20194400;2024-02-28T01:45:38;147.63;;;24.47;;
3280;SDS011;1652;51.31805600;6.20194400;2024-02-28T01:48:06;116.10;;;24.27;;
3280;SDS011;1652;51.31805600;6.20194400;2024-02-28T01:50:36;87.37;;;21.67;;
3280;SDS011;1652;51.31805600;6.20194400;2024-02-28T01:53:04;253.60;;;25.60;;
3280;SDS011;1652;51.31805600;6.20194400;2024-02-28T01:55:33;183.03;;;24.40;;
3280;SDS011;1652;51.31805600;6.20194400;2024-02-28T01:58:00;174.47;;;26.00;;
3280;SDS011;1652;51.31805600;6.20194400;2024-02-28T02:00:27;57.23;;;21.40;;
3280;SDS011;1652;51.31805600;6.20194400;2024-02-28T02:02:54;146.93;;;24.07;;
3280;SDS011;1652;51.31805600;6.20194400;2024-02-28T02:05:21;213.13;;;26.50;;
3280;SDS011;1652;51.31805600;6.20194400;2024-02-28T02:07:48;89.57;;;23.37;;
3280;SDS011;1652;51.31805600;6.20194400;2024-02-28T02:10:15;150.23;;;25.50;;
3280;SDS011;1652;51.31805600;6.20194400;2024-02-28T02:12:42;143.87;;;25.47;;
3280;SDS011;1652;51.31805600;6.20194400;2024-02-28T02:15:09;151.43;;;25.23;;
3280;SDS011;1652;51.31805600;6.20194400;2024-02-28T02:17:36;74.27;;;25.27;;
3280;SDS011;1652;51.31805600;6.20194400;2024-02-28T02:20:04;112.87;;;26.57;;
3280;SDS011;1652;51.31805600;6.20194400;2024-02-28T02:22:38;117.53;;;27.43;;
3280;SDS011;1652;51.31805600;6.20194400;2024-02-28T02:25:05;101.50;;;24.47;;
3280;SDS011;1652;51.31805600;6.20194400;2024-02-28T02:27:32;112.60;;;24.57;;
3280;SDS011;1652;51.31805600;6.20194400;2024-02-28T02:29:59;151.10;;;28.80;;
3280;SDS011;1652;51.31805600;6.20194400;2024-02-28T02:32:26;127.17;;;25.53;;
3280;SDS011;1652;51.31805600;6.20194400;2024-02-28T02:34:53;109.63;;;27.50;;
3280;SDS011;1652;51.31805600;6.20194400;2024-02-28T02:37:20;134.40;;;28.67;;
3280;SDS011;1652;51.31805600;6.20194400;2024-02-28T02:39:47;160.10;;;28.93;;
3280;SDS011;1652;51.31805600;6.20194400;2024-02-28T02:42:14;114.27;;;30.77;;
3280;SDS011;1652;51.31805600;6.20194400;2024-02-28T02:44:41;123.57;;;27.43;;
3280;SDS011;1652;51.31805600;6.20194400;2024-02-28T02:47:08;121.07;;;29.77;;
3280;SDS011;1652;51.31805600;6.20194400;2024-02-28T02:49:35;116.47;;;28.27;;
3280;SDS011;1652;51.31805600;6.20194400;2024-02-28T02:52:02;102.50;;;28.87;;
3280;SDS011;1652;51.31805600;6.20194400;2024-02-28T02:54:29;115.30;;;31.07;;
3280;SDS011;1652;51.31805600;6.20194400;2024-02-28T02:56:56;168.00;;;33.10;;
3280;SDS011;1652;51.31805600;6.20194400;2024-02-28T02:59:23;110.30;;;29.87;;
3280;SDS011;1652;51.31805600;6.20194400;2024-02-28T03:01:49;94.83;;;32.07;;
3280;SDS011;1652;51.31805600;6.20194400;2024-02-28T03:04:17;102.07;;;31.00;;
3280;SDS011;1652;51.31805600;6.20194400;2024-02-28T03:06:44;136.83;;;34.27;;
3280;SDS011;1652;51.31805600;6.20194400;2024-02-28T03:09:11;142.10;;;32.80;;
3280;SDS011;1652;51.31805600;6.20194400;2024-02-28T03:11:38;183.20;;;33.93;;
3280;SDS011;1652;51.31805600;6.20194400;2024-02-28T03:14:05;211.57;;;32.53;;
3280;SDS011;1652;51.31805600;6.20194400;2024-02-28T03:16:32;146.10;;;32.70;;
3280;SDS011;1652;51.31805600;6.20194400;2024-02-28T03:19:04;183.10;;;31.57;;
3280;SDS011;1652;51.31805600;6.20194400;2024-02-28T03:21:31;164.87;;;28.43;;
3280;SDS011;1652;51.31805600;6.20194400;2024-02-28T03:23:58;160.47;;;29.47;;
3280;SDS011;1652;51.31805600;6.20194400;2024-02-28T03:26:25;139.83;;;29.63;;
3280;SDS011;1652;51.31805600;6.20194400;2024-02-28T03:28:52;167.47;;;28.83;;
3280;SDS011;1652;51.31805600;6.20194400;2024-02-28T03:31:19;181.80;;;30.80;;
3280;SDS011;1652;51.31805600;6.20194400;2024-02-28T03:33:46;138.17;;;27.73;;
3280;SDS011;1652;51.31805600;6.20194400;2024-02-28T03:36:13;115.60;;;26.13;;
3280;SDS011;1652;51.31805600;6.20194400;2024-02-28T03:38:40;133.23;;;28.97;;
3280;SDS011;1652;51.31805600;6.20194400;2024-02-28T03:41:07;135.90;;;26.27;;
3280;SDS011;1652;51.31805600;6.20194400;2024-02-28T03:43:34;151.57;;;27.10;;
3280;SDS011;1652;51.31805600;6.20194400;2024-02-28T03:46:01;97.23;;;25.30;;
3280;SDS011;1652;51.31805600;6.20194400;2024-02-28T03:48:28;156.23;;;25.97;;
3280;SDS011;1652;51.31805600;6.20194400;2024-02-28T03:50:55;69.27;;;22.60;;
3280;SDS011;1652;51.31805600;6.20194400;2024-02-28T03:53:22;220.40;;;27.13;;
3280;SDS011;1652;51.31805600;6.20194400;2024-02-28T03:55:50;174.10;;;24.40;;
3280;SDS011;1652;51.31805600;6.20194400;2024-02-28T03:58:17;126.87;;;27.20;;
3280;SDS011;1652;51.31805600;6.20194400;2024-02-28T04:00:43;80.87;;;24.27;;
3280;SDS011;1652;51.31805600;6.20194400;2024-02-28T04:03:13;118.17;;;24.47;;
3280;SDS011;1652;51.31805600;6.20194400;2024-02-28T04:05:40;159.67;;;25.40;;
3280;SDS011;1652;51.31805600;6.20194400;2024-02-28T04:08:08;86.60;;;24.87;;
3280;SDS011;1652;51.31805600;6.20194400;2024-02-28T04:10:35;70.30;;;20.47;;
3280;SDS011;1652;51.31805600;6.20194400;2024-02-28T04:13:02;131.07;;;26.13;;
3280;SDS011;1652;51.31805600;6.20194400;2024-02-28T04:15:30;113.63;;;24.97;;
3280;SDS011;1652;51.31805600;6.20194400;2024-02-28T04:17:57;189.03;;;26.10;;
3280;SDS011;1652;51.31805600;6.20194400;2024-02-28T04:20:24;145.83;;;28.00;;
3280;SDS011;1652;51.31805600;6.20194400;2024-02-28T04:22:51;97.93;;;25.80;;
3280;SDS011;1652;51.31805600;6.20194400;2024-02-28T04:25:18;127.37;;;25.30;;
3280;SDS011;1652;51.31805600;6.20194400;2024-02-28T04:27:45;139.67;;;27.60;;
3280;SDS011;1652;51.31805600;6.20194400;2024-02-28T04:30:13;92.10;;;27.17;;
3280;SDS011;1652;51.31805600;6.20194400;2024-02-28T04:32:40;81.63;;;27.00;;
3280;SDS011;1652;51.31805600;6.20194400;2024-02-28T04:35:07;126.60;;;25.67;;
3280;SDS011;1652;51.31805600;6.20194400;2024-02-28T04:37:34;74.17;;;24.60;;
3280;SDS011;1652;51.31805600;6.20194400;2024-02-28T04:40:03;131.83;;;27.13;;
3280;SDS011;1652;51.31805600;6.20194400;2024-02-28T04:42:31;89.30;;;24.47;;
3280;SDS011;1652;51.31805600;6.20194400;2024-02-28T04:44:58;124.93;;;27.00;;
3280;SDS011;1652;51.31805600;6.20194400;2024-02-28T04:47:24;97.97;;;25.70;;
3280;SDS011;1652;51.31805600;6.20194400;2024-02-28T04:50:02;87.60;;;26.20;;
3280;SDS011;1652;51.31805600;6.20194400;2024-02-28T04:52:32;112.97;;;27.10;;
3280;SDS011;1652;51.31805600;6.20194400;2024-02-28T04:55:00;106.40;;;26.23;;
3280;SDS011;1652;51.31805600;6.20194400;2024-02-28T04:57:27;70.23;;;25.37;;
3280;SDS011;1652;51.31805600;6.20194400;2024-02-28T04:59:54;73.97;;;27.03;;
3280;SDS011;1652;51.31805600;6.20194400;2024-02-28T05:02:21;83.30;;;27.63;;
3280;SDS011;1652;51.31805600;6.20194400;2024-02-28T05:04:48;123.60;;;30.10;;
3280;SDS011;1652;51.31805600;6.20194400;2024-02-28T05:07:15;90.77;;;30.97;;
3280;SDS011;1652;51.31805600;6.20194400;2024-02-28T05:09:42;128.17;;;31.47;;
3280;SDS011;1652;51.31805600;6.20194400;2024-02-28T05:12:09;64.77;;;29.77;;
3280;SDS011;1652;51.31805600;6.20194400;2024-02-28T05:14:38;75.03;;;27.90;;
3280;SDS011;1652;51.31805600;6.20194400;2024-02-28T05:17:05;77.77;;;28.40;;
3280;SDS011;1652;51.31805600;6.20194400;2024-02-28T05:19:32;67.20;;;28.20;;
3280;SDS011;1652;51.31805600;6.20194400;2024-02-28T05:21:58;88.97;;;28.67;;
3280;SDS011;1652;51.31805600;6.20194400;2024-02-28T05:24:27;87.43;;;25.67;;
3280;SDS011;1652;51.31805600;6.20194400;2024-02-28T05:26:54;76.23;;;27.70;;
3280;SDS011;1652;51.31805600;6.20194400;2024-02-28T05:29:21;84.33;;;27.53;;
3280;SDS011;1652;51.31805600;6.20194400;2024-02-28T05:31:48;106.33;;;27.07;;
3280;SDS011;1652;51.31805600;6.20194400;2024-02-28T05:34:15;70.00;;;26.73;;
3280;SDS011;1652;51.31805600;6.20194400;2024-02-28T05:36:43;119.30;;;29.13;;
3280;SDS011;1652;51.31805600;6.20194400;2024-02-28T05:39:10;100.27;;;26.63;;
3280;SDS011;1652;51.31805600;6.20194400;2024-02-28T05:41:37;95.43;;;26.43;;
3280;SDS011;1652;51.31805600;6.20194400;2024-02-28T05:44:04;118.17;;;27.60;;
3280;SDS011;1652;51.31805600;6.20194400;2024-02-28T05:46:31;116.03;;;26.30;;
3280;SDS011;1652;51.31805600;6.20194400;2024-02-28T05:48:58;145.90;;;28.20;;
3280;SDS011;1652;51.31805600;6.20194400;2024-02-28T05:51:25;102.40;;;26.63;;
3280;SDS011;1652;51.31805600;6.20194400;2024-02-28T05:53:52;99.80;;;27.93;;
3280;SDS011;1652;51.31805600;6.20194400;2024-02-28T05:56:19;81.87;;;26.37;;
3280;SDS011;1652;51.31805600;6.20194400;2024-02-28T05:58:47;133.40;;;27.93;;
3280;SDS011;1652;51.31805600;6.20194400;2024-02-28T06:01:15;75.63;;;26.50;;
3280;SDS011;1652;51.31805600;6.20194400;2024-02-28T06:03:47;93.57;;;28.40;;
3280;SDS011;1652;51.31805600;6.20194400;2024-02-28T06:06:14;127.40;;;27.57;;
3280;SDS011;1652;51.31805600;6.20194400;2024-02-28T06:08:42;111.43;;;28.97;;
3280;SDS011;1652;51.31805600;6.20194400;2024-02-28T06:11:10;163.87;;;28.27;;
3280;SDS011;1652;51.31805600;6.20194400;2024-02-28T06:19:02;172.30;;;29.47;;
3280;SDS011;1652;51.31805600;6.20194400;2024-02-28T06:21:27;104.30;;;29.03;;
3280;SDS011;1652;51.31805600;6.20194400;2024-02-28T06:23:54;139.13;;;31.33;;
3280;SDS011;1652;51.31805600;6.20194400;2024-02-28T06:26:20;119.73;;;26.37;;
3280;SDS011;1652;51.31805600;6.20194400;2024-02-28T06:28:46;114.27;;;27.63;;
3280;SDS011;1652;51.31805600;6.20194400;2024-02-28T06:31:13;107.97;;;27.47;;
3280;SDS011;1652;51.31805600;6.20194400;2024-02-28T06:33:42;93.90;;;26.73;;
3280;SDS011;1652;51.31805600;6.20194400;2024-02-28T06:36:10;109.57;;;28.00;;
3280;SDS011;1652;51.31805600;6.20194400;2024-02-28T06:38:36;114.20;;;28.73;;
3280;SDS011;1652;51.31805600;6.20194400;2024-02-28T06:41:02;96.13;;;29.83;;
3280;SDS011;1652;51.31805600;6.20194400;2024-02-28T06:43:29;79.40;;;27.63;;
3280;SDS011;1652;51.31805600;6.20194400;2024-02-28T06:45:57;106.83;;;31.63;;
3280;SDS011;1652;51.31805600;6.20194400;2024-02-28T06:48:23;118.33;;;32.70;;
3280;SDS011;1652;51.31805600;6.20194400;2024-02-28T06:50:49;87.43;;;29.83;;
3280;SDS011;1652;51.31805600;6.20194400;2024-02-28T06:53:14;96.53;;;31.27;;
3280;SDS011;1652;51.31805600;6.20194400;2024-02-28T06:55:40;134.60;;;30.97;;
3280;SDS011;1652;51.31805600;6.20194400;2024-02-28T06:58:06;97.67;;;28.47;;
3280;SDS011;1652;51.31805600;6.20194400;2024-02-28T07:00:31;118.33;;;31.23;;
3280;SDS011;1652;51.31805600;6.20194400;2024-02-28T07:02:57;80.33;;;27.30;;
3280;SDS011;1652;51.31805600;6.20194400;2024-02-28T07:05:22;89.23;;;28.53;;
3280;SDS011;1652;51.31805600;6.20194400;2024-02-28T07:07:49;88.30;;;28.20;;
3280;SDS011;1652;51.31805600;6.20194400;2024-02-28T07:10:15;101.00;;;27.43;;
3280;SDS011;1652;51.31805600;6.20194400;2024-02-28T07:12:40;86.17;;;26.83;;
3280;SDS011;1652;51.31805600;6.20194400;2024-02-28T07:15:06;80.73;;;28.27;;
3280;SDS011;1652;51.31805600;6.20194400;2024-02-28T07:17:32;87.33;;;27.73;;
3280;SDS011;1652;51.31805600;6.20194400;2024-02-28T07:19:59;79.77;;;25.57;;
3280;SDS011;1652;51.31805600;6.20194400;2024-02-28T07:22:26;74.93;;;26.33;;
3280;SDS011;1652;51.31805600;6.20194400;2024-02-28T07:24:53;84.97;;;28.50;;
3280;SDS011;1652;51.31805600;6.20194400;2024-02-28T07:27:21;80.43;;;27.23;;
3280;SDS011;1652;51.31805600;6.20194400;2024-02-28T07:29:50;77.10;;;29.13;;
3280;SDS011;1652;51.31805600;6.20194400;2024-02-28T07:32:17;83.03;;;26.70;;
3280;SDS011;1652;51.31805600;6.20194400;2024-02-28T07:34:44;87.00;;;29.70;;
3280;SDS011;1652;51.31805600;6.20194400;2024-02-28T07:37:11;93.57;;;30.47;;
3280;SDS011;1652;51.31805600;6.20194400;2024-02-28T07:39:38;98.60;;;29.80;;
3280;SDS011;1652;51.31805600;6.20194400;2024-02-28T07:42:05;96.50;;;32.10;;
3280;SDS011;1652;51.31805600;6.20194400;2024-02-28T07:44:32;81.27;;;32.53;;
3280;SDS011;1652;51.31805600;6.20194400;2024-02-28T07:46:59;94.27;;;29.70;;
3280;SDS011;1652;51.31805600;6.20194400;2024-02-28T07:49:26;82.97;;;26.60;;
3280;SDS011;1652;51.31805600;6.20194400;2024-02-28T07:51:54;82.77;;;29.57;;
3280;SDS011;1652;51.31805600;6.20194400;2024-02-28T07:54:22;72.53;;;25.20;;
3280;SDS011;1652;51.31805600;6.20194400;2024-02-28T07:56:49;71.83;;;25.63;;
3280;SDS011;1652;51.31805600;6.20194400;2024-02-28T07:59:16;78.23;;;26.30;;
3280;SDS011;1652;51.31805600;6.20194400;2024-02-28T08:01:43;79.43;;;26.80;;
3280;SDS011;1652;51.31805600;6.20194400;2024-02-28T08:04:10;76.73;;;26.70;;
3280;SDS011;1652;51.31805600;6.20194400;2024-02-28T08:06:37;73.87;;;26.07;;
3280;SDS011;1652;51.31805600;6.20194400;2024-02-28T08:09:06;78.03;;;25.67;;
3280;SDS011;1652;51.31805600;6.20194400;2024-02-28T08:11:38;69.37;;;23.17;;
3280;SDS011;1652;51.31805600;6.20194400;2024-02-28T08:14:05;73.03;;;26.17;;
3280;SDS011;1652;51.31805600;6.20194400;2024-02-28T08:16:32;69.20;;;23.50;;
3280;SDS011;1652;51.31805600;6.20194400;2024-02-28T08:18:59;85.70;;;25.00;;
3280;SDS011;1652;51.31805600;6.20194400;2024-02-28T08:21:26;90.67;;;26.87;;
3280;SDS011;1652;51.31805600;6.20194400;2024-02-28T08:23:54;82.07;;;25.10;;
3280;SDS011;1652;51.31805600;6.20194400;2024-02-28T08:26:21;75.13;;;27.57;;
3280;SDS011;1652;51.31805600;6.20194400;2024-02-28T08:28:47;66.37;;;22.43;;
3280;SDS011;1652;51.31805600;6.20194400;2024-02-28T08:31:15;72.40;;;23.87;;
3280;SDS011;1652;51.31805600;6.20194400;2024-02-28T08:33:42;82.30;;;25.87;;
3280;SDS011;1652;51.31805600;6.20194400;2024-02-28T08:36:09;77.30;;;25.63;;
3280;SDS011;1652;51.31805600;6.20194400;2024-02-28T08:38:36;75.73;;;25.80;;
3280;SDS011;1652;51.31805600;6.20194400;2024-02-28T08:41:05;74.83;;;25.33;;
3280;SDS011;1652;51.31805600;6.20194400;2024-02-28T08:43:37;80.50;;;24.60;;
3280;SDS011;1652;51.31805600;6.20194400;2024-02-28T08:46:05;84.37;;;26.83;;
3280;SDS011;1652;51.31805600;6.20194400;2024-02-28T08:48:32;69.30;;;26.00;;
3280;SDS011;1652;51.31805600;6.20194400;2024-02-28T08:50:59;77.43;;;25.60;;
3280;SDS011;1652;51.31805600;6.20194400;2024-02-28T08:53:26;70.77;;;24.57;;
3280;SDS011;1652;51.31805600;6.20194400;2024-02-28T08:55:53;74.07;;;25.00;;
3280;SDS011;1652;51.31805600;6.20194400;2024-02-28T08:58:20;60.63;;;22.07;;
3280;SDS011;1652;51.31805600;6.20194400;2024-02-28T09:00:49;72.20;;;25.00;;
3280;SDS011;1652;51.31805600;6.20194400;2024-02-28T09:03:16;62.40;;;24.17;;
3280;SDS011;1652;51.31805600;6.20194400;2024-02-28T09:05:43;72.30;;;25.93;;
3280;SDS011;1652;51.31805600;6.20194400;2024-02-28T09:08:10;79.73;;;24.60;;
3280;SDS011;1652;51.31805600;6.20194400;2024-02-28T09:10:40;83.83;;;27.17;;
3280;SDS011;1652;51.31805600;6.20194400;2024-02-28T09:13:06;72.07;;;24.70;;
3280;SDS011;1652;51.31805600;6.20194400;2024-02-28T09:15:34;74.47;;;25.50;;
3280;SDS011;1652;51.31805600;6.20194400;2024-02-28T09:18:01;67.07;;;24.93;;
3280;SDS011;1652;51.31805600;6.20194400;2024-02-28T09:20:28;70.10;;;26.90;;
3280;SDS011;1652;51.31805600;6.20194400;2024-02-28T09:22:55;69.47;;;25.07;;
3280;SDS011;1652;51.31805600;6.20194400;2024-02-28T09:25:22;62.70;;;22.60;;
3280;SDS011;1652;51.31805600;6.20194400;2024-02-28T09:27:54;62.30;;;24.27;;
3280;SDS011;1652;51.31805600;6.20194400;2024-02-28T09:30:21;64.90;;;23.00;;
3280;SDS011;1652;51.31805600;6.20194400;2024-02-28T09:32:50;63.23;;;23.47;;
3280;SDS011;1652;51.31805600;6.20194400;2024-02-28T09:35:17;70.47;;;25.40;;
3280;SDS011;1652;51.31805600;6.20194400;2024-02-28T09:37:44;59.43;;;21.70;;
3280;SDS011;1652;51.31805600;6.20194400;2024-02-28T09:40:11;59.80;;;23.20;;
3280;SDS011;1652;51.31805600;6.20194400;2024-02-28T09:42:39;55.83;;;22.23;;
3280;SDS011;1652;51.31805600;6.20194400;2024-02-28T09:45:08;63.00;;;23.17;;
3280;SDS011;1652;51.31805600;6.20194400;2024-02-28T09:47:38;59.10;;;22.57;;
3280;SDS011;1652;51.31805600;6.20194400;2024-02-28T09:50:06;57.93;;;21.63;;
3280;SDS011;1652;51.31805600;6.20194400;2024-02-28T09:52:34;59.63;;;23.90;;
3280;SDS011;1652;51.31805600;6.20194400;2024-02-28T09:55:01;57.37;;;23.50;;
3280;SDS011;1652;51.31805600;6.20194400;2024-02-28T09:57:29;58.20;;;23.23;;
3280;SDS011;1652;51.31805600;6.20194400;2024-02-28T09:59:58;68.80;;;24.80;;
3280;SDS011;1652;51.31805600;6.20194400;2024-02-28T10:02:27;57.63;;;22.47;;
3280;SDS011;1652;51.31805600;6.20194400;2024-02-28T10:04:55;65.60;;;24.13;;
3280;SDS011;1652;51.31805600;6.20194400;2024-02-28T10:07:24;57.40;;;24.37;;
3280;SDS011;1652;51.31805600;6.20194400;2024-02-28T10:09:51;57.90;;;20.27;;
3280;SDS011;1652;51.31805600;6.20194400;2024-02-28T10:12:17;43.80;;;21.27;;
3280;SDS011;1652;51.31805600;6.20194400;2024-02-28T10:14:48;45.80;;;20.53;;
3280;SDS011;1652;51.31805600;6.20194400;2024-02-28T10:17:16;46.77;;;20.30;;
3280;SDS011;1652;51.31805600;6.20194400;2024-02-28T10:19:43;51.93;;;20.83;;
3280;SDS011;1652;51.31805600;6.20194400;2024-02-28T10:22:10;59.50;;;20.70;;
3280;SDS011;1652;51.31805600;6.20194400;2024-02-28T10:24:37;48.47;;;19.70;;
3280;SDS011;1652;51.31805600;6.20194400;2024-02-28T10:27:04;38.70;;;18.43;;
3280;SDS011;1652;51.31805600;6.20194400;2024-02-28T10:29:31;39.00;;;19.00;;
3280;SDS011;1652;51.31805600;6.20194400;2024-02-28T10:32:00;42.43;;;19.20;;
3280;SDS011;1652;51.31805600;6.20194400;2024-02-28T10:34:29;38.87;;;18.27;;
3280;SDS011;1652;51.31805600;6.20194400;2024-02-28T10:36:56;37.40;;;18.77;;
3280;SDS011;1652;51.31805600;6.20194400;2024-02-28T10:39:24;38.23;;;19.10;;
3280;SDS011;1652;51.31805600;6.20194400;2024-02-28T10:41:55;34.10;;;17.47;;
3280;SDS011;1652;51.31805600;6.20194400;2024-02-28T10:44:23;38.67;;;17.83;;
3280;SDS011;1652;51.31805600;6.20194400;2024-02-28T10:46:53;38.43;;;18.10;;
3280;SDS011;1652;51.31805600;6.20194400;2024-02-28T10:49:21;33.30;;;16.57;;
3280;SDS011;1652;51.31805600;6.20194400;2024-02-28T10:51:48;42.17;;;17.90;;
3280;SDS011;1652;51.31805600;6.20194400;2024-02-28T10:54:18;41.03;;;18.60;;
3280;SDS011;1652;51.31805600;6.20194400;2024-02-28T10:56:47;38.27;;;17.10;;
3280;SDS011;1652;51.31805600;6.20194400;2024-02-28T10:59:15;36.20;;;16.30;;
3280;SDS011;1652;51.31805600;6.20194400;2024-02-28T11:01:43;32.63;;;15.83;;
3280;SDS011;1652;51.31805600;6.20194400;2024-02-28T11:04:12;38.43;;;19.07;;
3280;SDS011;1652;51.31805600;6.20194400;2024-02-28T11:06:48;35.60;;;16.93;;
3280;SDS011;1652;51.31805600;6.20194400;2024-02-28T11:09:21;36.73;;;17.03;;
3280;SDS011;1652;51.31805600;6.20194400;2024-02-28T11:11:54;38.70;;;19.60;;
3280;SDS011;1652;51.31805600;6.20194400;2024-02-28T11:14:22;36.93;;;17.13;;
3280;SDS011;1652;51.31805600;6.20194400;2024-02-28T11:17:03;42.93;;;19.53;;
3280;SDS011;1652;51.31805600;6.20194400;2024-02-28T11:19:31;39.27;;;17.47;;
3280;SDS011;1652;51.31805600;6.20194400;2024-02-28T11:22:00;40.20;;;18.23;;
3280;SDS011;1652;51.31805600;6.20194400;2024-02-28T11:24:29;46.97;;;22.17;;
3280;SDS011;1652;51.31805600;6.20194400;2024-02-28T11:26:57;43.00;;;18.00;;
3280;SDS011;1652;51.31805600;6.20194400;2024-02-28T11:29:25;36.07;;;16.23;;
3280;SDS011;1652;51.31805600;6.20194400;2024-02-28T11:31:55;33.40;;;16.17;;
3280;SDS011;1652;51.31805600;6.20194400;2024-02-28T11:34:22;35.37;;;17.37;;
3280;SDS011;1652;51.31805600;6.20194400;2024-02-28T11:36:49;35.93;;;17.10;;
3280;SDS011;1652;51.31805600;6.20194400;2024-02-28T11:39:17;38.43;;;18.47;;
3280;SDS011;1652;51.31805600;6.20194400;2024-02-28T11:41:48;38.03;;;17.30;;
3280;SDS011;1652;51.31805600;6.20194400;2024-02-28T11:44:16;35.87;;;16.27;;
3280;SDS011;1652;51.31805600;6.20194400;2024-02-28T11:46:46;34.37;;;16.80;;
3280;SDS011;1652;51.31805600;6.20194400;2024-02-28T11:49:15;31.77;;;15.90;;
3280;SDS011;1652;51.31805600;6.20194400;2024-02-28T11:51:43;32.23;;;16.37;;
3280;SDS011;1652;51.31805600;6.20194400;2024-02-28T11:54:10;30.90;;;14.77;;
3280;SDS011;1652;51.31805600;6.20194400;2024-02-28T11:56:38;32.47;;;16.17;;
3280;SDS011;1652;51.31805600;6.20194400;2024-02-28T11:59:05;32.40;;;15.27;;
3280;SDS011;1652;51.31805600;6.20194400;2024-02-28T12:01:34;29.73;;;15.70;;
3280;SDS011;1652;51.31805600;6.20194400;2024-02-28T12:04:05;35.20;;;15.20;;
3280;SDS011;1652;51.31805600;6.20194400;2024-02-28T12:06:34;31.73;;;16.43;;
3280;SDS011;1652;51.31805600;6.20194400;2024-02-28T12:09:03;33.70;;;14.83;;
3280;SDS011;1652;51.31805600;6.20194400;2024-02-28T12:11:33;26.87;;;15.00;;
3280;SDS011;1652;51.31805600;6.20194400;2024-02-28T12:14:04;31.00;;;15.03;;
3280;SDS011;1652;51.31805600;6.20194400;2024-02-28T12:16:39;28.70;;;14.30;;
3280;SDS011;1652;51.31805600;6.20194400;2024-02-28T12:19:09;30.07;;;15.67;;
3280;SDS011;1652;51.31805600;6.20194400;2024-02-28T12:21:37;38.80;;;15.37;;
3280;SDS011;1652;51.31805600;6.20194400;2024-02-28T12:24:08;25.83;;;13.03;;
3280;SDS011;1652;51.31805600;6.20194400;2024-02-28T12:26:37;29.50;;;14.20;;
3280;SDS011;1652;51.31805600;6.20194400;2024-02-28T12:29:05;31.73;;;13.63;;
3280;SDS011;1652;51.31805600;6.20194400;2024-02-28T12:31:32;33.00;;;14.57;;
3280;SDS011;1652;51.31805600;6.20194400;2024-02-28T12:33:59;33.53;;;15.40;;
3280;SDS011;1652;51.31805600;6.20194400;2024-02-28T12:36:26;28.73;;;13.50;;
3280;SDS011;1652;51.31805600;6.20194400;2024-02-28T12:38:53;25.20;;;14.20;;
3280;SDS011;1652;51.31805600;6.20194400;2024-02-28T12:41:20;25.10;;;13.97;;
3280;SDS011;1652;51.31805600;6.20194400;2024-02-28T12:43:47;22.93;;;12.87;;
3280;SDS011;1652;51.31805600;6.20194400;2024-02-28T12:46:14;31.70;;;14.27;;
3280;SDS011;1652;51.31805600;6.20194400;2024-02-28T12:48:41;30.00;;;14.17;;
3280;SDS011;1652;51.31805600;6.20194400;2024-02-28T12:51:11;27.47;;;14.30;;
3280;SDS011;1652;51.31805600;6.20194400;2024-02-28T12:53:47;29.17;;;14.67;;
3280;SDS011;1652;51.31805600;6.20194400;2024-02-28T12:56:17;26.73;;;13.60;;